Terminal Aerodrome Forecast
Issued by NWS

Home | Current Version | Previous Version | Text Only | Print | Product List | Glossary On
Versions: 1 2 3 4 5 6 7 8 9 10 11 12 13 14 15 16 17 18
000
FTUS41 KPBZ 012300
TAFBVI
TAF
KBVI 012330Z 0200/0224 VRB02KT P6SM SKC
     FM021400 20012KT P6SM BKN100
     FM021700 20015G25KT P6SM -SHRA OVC035
     FM022100 21015G25KT 4SM -SHRA OVC025
      AMD NOT SKED 0202/0212=

USA.gov is the U.S. government's official web portal to all federal, state and local government web resources and services.